createdAt,value
2023-03-26T00:02:57.707Z,210.01
2023-03-26T00:06:57.773Z,210.60
2023-03-26T00:10:59.024Z,211.11
2023-03-26T00:14:58.001Z,209.49
2023-03-26T00:18:58.114Z,211.17
2023-03-26T00:22:58.220Z,209.75
2023-03-26T00:26:58.357Z,210.17
2023-03-26T00:30:58.907Z,209.09
2023-03-26T00:34:58.527Z,209.78
2023-03-26T00:38:58.685Z,210.23
2023-03-26T00:42:58.778Z,211.20
2023-03-26T00:46:58.908Z,212.14
2023-03-26T00:50:59.029Z,211.31
2023-03-26T00:54:59.235Z,210.74
2023-03-26T00:58:59.303Z,211.75
2023-03-26T01:02:59.642Z,211.45
2023-03-26T01:06:59.568Z,211.99
2023-03-26T01:10:59.776Z,212.35
2023-03-26T01:14:59.943Z,212.42
2023-03-26T01:19:00.144Z,213.43
2023-03-26T01:23:00.177Z,212.70
2023-03-26T01:27:00.316Z,212.78
2023-03-26T01:31:00.513Z,212.33
2023-03-26T01:35:00.701Z,211.70
2023-03-26T01:39:00.925Z,211.72
2023-03-26T01:43:00.935Z,212.16
2023-03-26T01:47:01.253Z,213.25
2023-03-26T01:51:01.268Z,211.58
2023-03-26T01:55:01.416Z,211.14
2023-03-26T01:59:01.555Z,212.32
2023-03-26T02:03:01.881Z,212.49
2023-03-26T02:07:01.972Z,210.73
2023-03-26T02:11:02.089Z,211.66
2023-03-26T02:15:02.241Z,211.47
2023-03-26T02:19:02.477Z,212.68
2023-03-26T02:23:02.628Z,212.20
2023-03-26T02:27:02.821Z,213.23
2023-03-26T02:31:02.979Z,210.71
2023-03-26T02:35:03.183Z,213.64
2023-03-26T02:39:03.367Z,213.31
2023-03-26T02:43:03.582Z,213.99
2023-03-26T02:47:03.796Z,211.92
2023-03-26T02:51:03.939Z,214.64
2023-03-26T02:55:04.148Z,213.10
2023-03-26T02:59:04.289Z,212.34
2023-03-26T03:03:04.617Z,212.87
2023-03-26T03:07:04.708Z,213.63
2023-03-26T03:11:04.987Z,212.94
2023-03-26T03:15:05.155Z,213.62
2023-03-26T03:19:05.355Z,215.52
2023-03-26T03:23:05.535Z,212.35
2023-03-26T03:27:05.824Z,213.64
2023-03-26T03:31:06.071Z,213.92
2023-03-26T03:35:06.172Z,215.12
2023-03-26T03:39:06.401Z,214.22
2023-03-26T03:43:06.666Z,213.49
2023-03-26T03:47:06.583Z,214.22
2023-03-26T03:51:06.563Z,214.57
2023-03-26T03:55:06.523Z,212.88
2023-03-26T03:59:06.471Z,214.30
2023-03-26T04:03:06.692Z,216.00
2023-03-26T04:07:06.407Z,215.34
2023-03-26T04:11:06.427Z,213.34
2023-03-26T04:15:06.301Z,213.38
2023-03-26T04:19:06.303Z,214.17
2023-03-26T04:23:06.302Z,213.97
2023-03-26T04:27:06.988Z,212.66
2023-03-26T04:31:06.231Z,215.69
2023-03-26T04:35:06.172Z,216.15
2023-03-26T04:39:06.304Z,216.02
2023-03-26T04:43:06.113Z,213.46
2023-03-26T04:47:06.047Z,214.10
2023-03-26T04:51:06.072Z,214.84
2023-03-26T04:55:06.275Z,214.94
2023-03-26T04:59:06.278Z,214.39
2023-03-26T05:03:06.264Z,214.16
2023-03-26T05:07:06.200Z,215.06
2023-03-26T05:11:06.097Z,212.98
2023-03-26T05:15:06.042Z,213.18
2023-03-26T05:19:06.030Z,215.19
2023-03-26T05:23:05.953Z,212.56
2023-03-26T05:27:05.947Z,214.45
2023-03-26T05:31:05.947Z,213.96
2023-03-26T05:35:05.874Z,212.01
2023-03-26T05:39:05.853Z,213.72
2023-03-26T05:43:05.812Z,214.74
2023-03-26T05:47:05.754Z,215.40
2023-03-26T05:51:05.717Z,212.97
2023-03-26T05:55:05.784Z,214.11
2023-03-26T05:59:05.843Z,212.65
2023-03-26T06:03:06.071Z,214.11
2023-03-26T06:07:06.091Z,214.07
2023-03-26T06:11:06.213Z,213.15
2023-03-26T06:15:06.393Z,213.74
2023-03-26T06:19:06.622Z,213.78
2023-03-26T06:23:06.499Z,213.99
2023-03-26T06:27:06.472Z,213.89
2023-03-26T06:31:06.456Z,211.22
2023-03-26T06:35:06.429Z,213.29
2023-03-26T06:39:07.812Z,214.24
2023-03-26T06:43:08.643Z,214.59
2023-03-26T06:47:06.275Z,215.54
2023-03-26T06:51:06.551Z,213.91
2023-03-26T06:55:06.227Z,215.31
2023-03-26T06:59:06.189Z,213.66
2023-03-26T07:03:06.266Z,213.56
2023-03-26T07:07:06.184Z,215.06
2023-03-26T07:11:06.258Z,215.08
2023-03-26T07:15:06.095Z,213.02
2023-03-26T07:19:06.070Z,213.27
2023-03-26T07:23:06.033Z,212.89
2023-03-26T07:27:05.946Z,213.61
2023-03-26T07:31:05.940Z,214.57
2023-03-26T07:35:05.907Z,212.36
2023-03-26T07:39:05.890Z,212.94
2023-03-26T07:43:05.873Z,214.96
2023-03-26T07:47:05.823Z,213.90
2023-03-26T07:51:05.766Z,215.39
2023-03-26T07:55:06.048Z,215.50
2023-03-26T07:59:05.785Z,214.76
2023-03-26T08:03:05.927Z,215.46
2023-03-26T08:07:05.875Z,214.10
2023-03-26T08:11:05.958Z,214.81
2023-03-26T08:15:05.999Z,215.58
2023-03-26T08:19:05.963Z,216.25
2023-03-26T08:23:05.935Z,213.98
2023-03-26T08:27:05.960Z,214.78
2023-03-26T08:31:06.122Z,214.89
2023-03-26T08:35:05.920Z,215.18
2023-03-26T08:39:05.936Z,214.10
2023-03-26T08:43:05.966Z,213.44
2023-03-26T08:47:06.048Z,214.15
2023-03-26T08:51:06.265Z,214.36
2023-03-26T08:55:06.236Z,215.31
2023-03-26T08:59:06.167Z,215.04
2023-03-26T09:03:06.173Z,212.81
2023-03-26T09:07:06.066Z,213.89
2023-03-26T09:11:06.049Z,213.84
2023-03-26T09:15:06.085Z,213.89
2023-03-26T09:19:06.009Z,214.01
2023-03-26T09:23:05.978Z,214.54
2023-03-26T09:27:05.907Z,213.69
2023-03-26T09:31:06.078Z,213.60
2023-03-26T09:35:05.963Z,214.16
2023-03-26T09:39:05.952Z,213.65
2023-03-26T09:43:05.944Z,213.67
2023-03-26T09:47:05.873Z,212.84
2023-03-26T09:51:05.812Z,214.79
2023-03-26T09:55:05.756Z,215.07
2023-03-26T09:59:05.825Z,214.47
2023-03-26T10:03:05.790Z,216.61
2023-03-26T10:07:05.717Z,216.18
2023-03-26T10:11:05.632Z,215.45
2023-03-26T10:15:05.633Z,216.68
2023-03-26T10:19:05.648Z,216.97
2023-03-26T10:23:05.570Z,217.62
2023-03-26T10:27:10.192Z,218.50
2023-03-26T10:31:06.709Z,217.94
2023-03-26T10:35:05.620Z,217.84
2023-03-26T10:39:05.577Z,218.54
2023-03-26T10:43:05.658Z,217.62
2023-03-26T10:47:05.785Z,217.17
2023-03-26T10:51:05.922Z,216.98
2023-03-26T10:55:06.043Z,215.71
2023-03-26T10:59:06.114Z,216.79
2023-03-26T11:03:06.312Z,217.01
2023-03-26T11:07:06.332Z,217.52
2023-03-26T11:11:06.479Z,219.23
2023-03-26T11:15:06.440Z,218.83
2023-03-26T11:19:06.503Z,223.28
2023-03-26T11:23:06.538Z,224.42
2023-03-26T11:27:15.306Z,225.49
2023-03-26T11:31:07.478Z,228.24
2023-03-26T11:35:06.453Z,228.95
2023-03-26T11:39:06.451Z,228.05
2023-03-26T11:43:06.383Z,228.61
2023-03-26T11:47:06.365Z,230.97
2023-03-26T11:51:06.355Z,229.31
2023-03-26T11:55:06.309Z,227.77
2023-03-26T11:59:06.393Z,227.34
2023-03-26T12:03:06.400Z,226.68
2023-03-26T12:07:06.422Z,231.92
2023-03-26T12:11:06.553Z,231.77
2023-03-26T12:15:06.624Z,232.06
2023-03-26T12:19:06.601Z,232.41
2023-03-26T12:23:06.656Z,231.89
2023-03-26T12:27:06.580Z,231.15
2023-03-26T12:31:06.663Z,229.77
2023-03-26T12:35:06.625Z,228.53
2023-03-26T12:39:16.954Z,228.40
2023-03-26T12:44:49.409Z,229.16
2023-03-26T12:47:57.090Z,228.59
2023-03-26T12:51:07.657Z,229.46
2023-03-26T12:55:11.839Z,227.68
2023-03-26T12:59:07.429Z,227.42
2023-03-26T13:03:06.541Z,226.10
2023-03-26T13:07:06.358Z,223.07
2023-03-26T13:11:06.360Z,223.27
2023-03-26T13:15:06.366Z,223.20
2023-03-26T13:19:06.491Z,221.73
2023-03-26T13:23:06.632Z,219.75
2023-03-26T13:27:06.760Z,218.23
2023-03-26T13:31:06.902Z,217.69
2023-03-26T13:35:07.056Z,214.46
2023-03-26T13:39:07.180Z,214.23
2023-03-26T13:43:07.388Z,211.99
2023-03-26T13:47:07.533Z,211.70
2023-03-26T13:51:07.749Z,214.17
2023-03-26T13:55:07.909Z,212.19
2023-03-26T13:59:08.102Z,212.01
2023-03-26T14:03:08.357Z,212.57
2023-03-26T14:07:08.568Z,212.33
2023-03-26T14:11:08.810Z,212.18
2023-03-26T14:15:08.968Z,212.30
2023-03-26T14:19:08.944Z,212.10
2023-03-26T14:23:08.890Z,209.77
2023-03-26T14:27:08.839Z,211.02
2023-03-26T14:31:08.838Z,213.65
2023-03-26T14:35:08.757Z,211.07
2023-03-26T14:39:08.770Z,213.04
2023-03-26T14:43:08.755Z,211.78
2023-03-26T14:47:08.797Z,212.86
2023-03-26T14:51:08.599Z,213.40
2023-03-26T14:55:08.795Z,210.96
2023-03-26T14:59:09.002Z,211.15
2023-03-26T15:03:09.215Z,212.11
2023-03-26T15:07:09.379Z,212.25
2023-03-26T15:11:09.464Z,211.90
2023-03-26T15:15:09.464Z,211.90
2023-03-26T15:19:09.512Z,212.23
2023-03-26T15:23:09.356Z,212.94
2023-03-26T15:27:09.357Z,213.46
2023-03-26T15:31:09.340Z,212.23
2023-03-26T15:35:09.279Z,212.69
2023-03-26T15:39:09.290Z,211.80
2023-03-26T15:43:09.331Z,213.57
2023-03-26T15:47:09.267Z,212.78
2023-03-26T15:51:09.301Z,213.25
2023-03-26T15:55:09.289Z,212.74
2023-03-26T15:59:09.331Z,215.14
2023-03-26T16:03:09.436Z,214.36
2023-03-26T16:07:09.456Z,216.92
2023-03-26T16:11:09.397Z,212.37
2023-03-26T16:15:09.543Z,213.69
2023-03-26T16:19:09.430Z,213.54
2023-03-26T16:23:09.482Z,215.01
2023-03-26T16:27:09.554Z,214.75
2023-03-26T16:31:23.583Z,215.81
2023-03-26T16:35:10.584Z,213.04
2023-03-26T16:39:09.582Z,213.87
2023-03-26T16:43:09.511Z,213.35
2023-03-26T16:47:09.452Z,213.15
2023-03-26T16:51:09.403Z,212.11
2023-03-26T16:55:09.588Z,213.30
2023-03-26T16:59:09.634Z,211.80
2023-03-26T17:03:09.843Z,213.77
2023-03-26T17:07:09.797Z,212.35
2023-03-26T17:11:09.879Z,211.60
2023-03-26T17:15:09.930Z,209.61
2023-03-26T17:19:10.060Z,211.04
2023-03-26T17:23:10.195Z,211.06
2023-03-26T17:27:10.267Z,210.75
2023-03-26T17:31:10.427Z,208.72
2023-03-26T17:35:11.512Z,210.74
2023-03-26T17:39:10.647Z,212.30
2023-03-26T17:43:10.849Z,211.67
2023-03-26T17:47:10.973Z,209.50
2023-03-26T17:51:11.115Z,211.18
2023-03-26T17:55:11.232Z,211.42
2023-03-26T17:59:12.471Z,210.46
2023-03-26T18:03:11.611Z,209.93
2023-03-26T18:07:11.723Z,213.71
2023-03-26T18:11:11.880Z,211.40
2023-03-26T18:15:12.068Z,211.71
2023-03-26T18:19:12.240Z,210.74
2023-03-26T18:23:12.457Z,209.98
2023-03-26T18:27:12.825Z,210.27
2023-03-26T18:31:12.857Z,209.63
2023-03-26T18:35:13.082Z,210.29
2023-03-26T18:39:13.089Z,212.30
2023-03-26T18:43:19.411Z,211.14
2023-03-26T18:47:13.969Z,208.51
2023-03-26T18:51:12.959Z,210.40
2023-03-26T18:55:13.192Z,210.67
2023-03-26T18:59:13.111Z,211.72
2023-03-26T19:03:13.082Z,214.02
2023-03-26T19:07:12.955Z,212.02
2023-03-26T19:11:12.955Z,212.60
2023-03-26T19:15:12.926Z,209.33
2023-03-26T19:19:12.945Z,210.63
2023-03-26T19:23:12.855Z,211.28
2023-03-26T19:27:12.794Z,210.05
2023-03-26T19:31:12.799Z,212.62
2023-03-26T19:35:12.906Z,211.02
2023-03-26T19:39:12.922Z,211.22
2023-03-26T19:43:12.901Z,210.88
2023-03-26T19:47:12.846Z,209.79
2023-03-26T19:51:12.832Z,212.20
2023-03-26T19:55:12.752Z,210.57
2023-03-26T19:59:12.705Z,212.07
2023-03-26T20:03:12.747Z,209.62
2023-03-26T20:07:12.654Z,212.20
2023-03-26T20:11:12.593Z,209.87
2023-03-26T20:15:19.385Z,211.72
2023-03-26T20:19:13.640Z,209.94
2023-03-26T20:23:12.581Z,211.20
2023-03-26T20:27:12.672Z,214.14
2023-03-26T20:31:12.888Z,212.45
2023-03-26T20:35:12.930Z,209.40
2023-03-26T20:39:12.912Z,209.99
2023-03-26T20:43:12.943Z,212.25
2023-03-26T20:47:12.976Z,209.38
2023-03-26T20:51:13.079Z,209.10
2023-03-26T20:55:12.925Z,207.53
2023-03-26T20:59:13.031Z,208.51
2023-03-26T21:03:13.012Z,208.17
2023-03-26T21:07:18.215Z,210.90
2023-03-26T21:11:13.908Z,209.93
2023-03-26T21:15:22.816Z,212.08
2023-03-26T21:19:13.831Z,211.39
2023-03-26T21:23:12.821Z,211.27
2023-03-26T21:27:12.767Z,208.67
2023-03-26T21:31:12.799Z,208.96
2023-03-26T21:35:12.786Z,206.82
2023-03-26T21:39:12.663Z,209.66
2023-03-26T21:43:12.631Z,209.70
2023-03-26T21:47:12.665Z,210.28
2023-03-26T21:51:12.570Z,208.60
2023-03-26T21:55:12.543Z,208.77
2023-03-26T21:59:12.522Z,206.22
2023-03-26T22:03:12.505Z,209.00
2023-03-26T22:07:12.424Z,206.19
2023-03-26T22:11:12.425Z,206.85
2023-03-26T22:15:12.361Z,207.16
2023-03-26T22:19:12.286Z,207.49
2023-03-26T22:23:12.270Z,205.04
2023-03-26T22:27:12.250Z,207.54
2023-03-26T22:31:12.288Z,205.20
2023-03-26T22:35:12.116Z,208.28
2023-03-26T22:39:12.145Z,205.77
2023-03-26T22:43:12.122Z,207.05
2023-03-26T22:50:57.308Z,25.00
2023-03-26T22:54:56.919Z,26.38
2023-03-26T22:58:56.854Z,29.28
2023-03-26T23:02:56.956Z,27.59
2023-03-26T23:06:56.853Z,26.07
2023-03-26T23:10:56.929Z,28.78
2023-03-26T23:14:56.761Z,28.40
2023-03-26T23:18:56.730Z,31.17
2023-03-26T23:22:56.643Z,27.34
2023-03-26T23:26:56.633Z,29.26
2023-03-26T23:30:56.758Z,31.80
2023-03-26T23:34:56.591Z,26.78
2023-03-26T23:38:56.559Z,27.67
2023-03-26T23:42:56.474Z,28.48
2023-03-26T23:46:56.511Z,31.09
2023-03-26T23:51:03.170Z,28.67
2023-03-26T23:54:57.450Z,30.49
2023-03-26T23:58:56.332Z,31.82
